Terminal Aerodrome Forecast
Issued by NWS Central Illinois

Home | Current Version | Previous Version | Text Only | Print | Product List | Glossary On
Versions: 1 2 3 4 5 6 7 8 9 10 11 12 13
000
FTUS43 KILX 030530
TAFSPI
TAF
KSPI 030530Z 0306/0406 19004KT P6SM SCT120
     FM031700 22008KT P6SM SCT080
     FM040000 19004KT P6SM SKC=

USA.gov is the U.S. government's official web portal to all federal, state and local government web resources and services.